EAGO2: Mountain Fork Riv, Eagletown,

                                SHEF ID:       EAGO2     Mountain Fork near Eagletown, OK
STATION TYPE: Stream Gauge
Regulating: Stage = 9.00, Flow = 9433

PRECIP STAGE RIV-FLOW WTR-TEMP BAT-LOAD
in ft cfs F volt
Ccp-Rev Ccp-Rev Ccp-Rev Ccp-Rev Ccp-Rev
(America/Chicago)
04/27 00:00 0.00 2.39 829 64.63 12.01
04/27 01:00 0.00 2.33 786 63.90 12.01
04/27 02:00 0.00 2.23 718 63.54 12.01
04/27 03:00 0.00 2.13 656 63.43 11.93
04/27 04:00 0.00 2.03 599 63.46 11.93
04/27 05:00 0.00 1.94 552 63.59 11.93
04/27 06:00 0.00 1.85 508 63.91 11.93
04/27 07:00 0.00 1.77 472 64.18 12.01
04/27 08:00 0.00 1.70 442 64.45 11.93
04/27 09:00 0.00 1.63 413 64.71 12.01
04/27 10:00 0.00 1.57 390 64.98 12.33
04/27 11:00 0.00 1.50 363 65.39 12.73
04/27 12:00 0.00 1.47 352 65.88 12.65
04/27 13:00 0.00 1.41 331 66.34 12.81
04/27 14:00 0.00 1.35 310 67.10 12.73
04/27 15:00 0.00 1.33 303 67.64 12.57
04/27 16:00 0.00 1.30 294 68.00 12.41
04/27 17:00 0.00 1.24 275 68.50 12.33
04/27 18:00 0.00 1.24 275 68.97 12.25
04/27 19:00 0.00 1.21 265 69.12 12.97
04/27 20:00 0.00 1.38 320 69.12 12.97
04/27 21:00 0.00 2.58 974 69.26 12.89
04/27 22:00 0.00 3.70 2054 66.56 12.81
04/27 23:00 0.00 3.95 2343 65.93 12.81
Data processed at Tue 28Apr2026 04:39 GMT

NOTICE: If you are parsing this page

Please convert to using our Data API. Starting early 2026 we will be migrating to: https://water.usace.army.mil with modern pages rendered in JavaScript. When this migration completes you will no longer be able to scrape this page! CWMSDataAPI (CDA)

Timeseries IDs (TSIDs)

TSIDs used from left to right in the data table
EAGL.Precip-Inc.Total.1Hour.1Hour.Ccp-Rev
EAGL.Stage.Inst.1Hour.0.Ccp-Rev
EAGL.Flow.Inst.1Hour.0.Ccp-Rev
EAGL.Temp-Water.Inst.1Hour.0.Ccp-Rev
EAGL.Volt-Battery Load.Inst.1Hour.0.Ccp-Rev

                            

All information presented herein is the property of the government of the United States of America and may be revised or deleted at any time without prior notice. Dissemination of this information without the expressed written consent of the Public Affairs Office, Tulsa District U.S. Army Corps of Engineers is strictly prohibited. These data are gathered electronically and, as presented, have NOT undergone any form of quality control. These data are NOT guaranteed to be valid or correct.